sensor_id;sensor_type;location;lat;lon;timestamp;pressure;altitude;pressure_sealevel;temperature;humidity
3082;BME280;1551;51.046;7.010;2023-08-01T00:02:46;99285.88;;;18.30;100.00
3082;BME280;1551;51.046;7.010;2023-08-01T00:05:35;99291.13;;;18.29;100.00
3082;BME280;1551;51.046;7.010;2023-08-01T00:08:24;99281.72;;;18.28;100.00
3082;BME280;1551;51.046;7.010;2023-08-01T00:11:13;99295.09;;;18.34;100.00
3082;BME280;1551;51.046;7.010;2023-08-01T00:14:03;99278.41;;;18.38;100.00
3082;BME280;1551;51.046;7.010;2023-08-01T00:16:52;99273.25;;;18.38;100.00
3082;BME280;1551;51.046;7.010;2023-08-01T00:19:41;99269.19;;;18.34;100.00
3082;BME280;1551;51.046;7.010;2023-08-01T00:22:30;99285.91;;;18.43;100.00
3082;BME280;1551;51.046;7.010;2023-08-01T00:25:19;99275.44;;;18.44;100.00
3082;BME280;1551;51.046;7.010;2023-08-01T00:28:08;99276.22;;;18.46;100.00
3082;BME280;1551;51.046;7.010;2023-08-01T00:31:08;99267.69;;;18.44;100.00
3082;BME280;1551;51.046;7.010;2023-08-01T00:34:00;99258.91;;;18.47;100.00
3082;BME280;1551;51.046;7.010;2023-08-01T00:36:49;99250.13;;;18.49;100.00
3082;BME280;1551;51.046;7.010;2023-08-01T00:39:37;99224.94;;;18.51;100.00
3082;BME280;1551;51.046;7.010;2023-08-01T00:42:26;99244.81;;;18.51;100.00
3082;BME280;1551;51.046;7.010;2023-08-01T00:45:15;99256.94;;;18.50;100.00
3082;BME280;1551;51.046;7.010;2023-08-01T00:48:05;99253.06;;;18.43;100.00
3082;BME280;1551;51.046;7.010;2023-08-01T00:50:54;99234.34;;;18.52;100.00
3082;BME280;1551;51.046;7.010;2023-08-01T00:53:45;99192.81;;;18.54;100.00
3082;BME280;1551;51.046;7.010;2023-08-01T00:56:36;99194.44;;;18.55;100.00
3082;BME280;1551;51.046;7.010;2023-08-01T00:59:24;99182.84;;;18.61;100.00
3082;BME280;1551;51.046;7.010;2023-08-01T01:02:14;99203.38;;;18.64;100.00
3082;BME280;1551;51.046;7.010;2023-08-01T01:05:03;99196.41;;;18.64;100.00
3082;BME280;1551;51.046;7.010;2023-08-01T01:07:54;99190.50;;;18.62;100.00
3082;BME280;1551;51.046;7.010;2023-08-01T01:10:43;99193.59;;;18.54;100.00
3082;BME280;1551;51.046;7.010;2023-08-01T01:13:32;99173.31;;;18.61;100.00
3082;BME280;1551;51.046;7.010;2023-08-01T01:16:20;99172.38;;;18.62;100.00
3082;BME280;1551;51.046;7.010;2023-08-01T01:19:09;99170.50;;;18.64;100.00
3082;BME280;1551;51.046;7.010;2023-08-01T01:21:58;99171.75;;;18.59;100.00
3082;BME280;1551;51.046;7.010;2023-08-01T01:24:48;99177.34;;;18.65;100.00
3082;BME280;1551;51.046;7.010;2023-08-01T01:27:37;99186.59;;;18.57;100.00
3082;BME280;1551;51.046;7.010;2023-08-01T01:30:28;99186.16;;;18.50;100.00
3082;BME280;1551;51.046;7.010;2023-08-01T01:33:17;99180.72;;;18.40;100.00
3082;BME280;1551;51.046;7.010;2023-08-01T01:36:06;99173.63;;;18.57;100.00
3082;BME280;1551;51.046;7.010;2023-08-01T01:38:55;99177.16;;;18.68;100.00
3082;BME280;1551;51.046;7.010;2023-08-01T01:41:44;99187.31;;;18.59;100.00
3082;BME280;1551;51.046;7.010;2023-08-01T01:44:33;99181.06;;;18.48;100.00
3082;BME280;1551;51.046;7.010;2023-08-01T01:47:22;99174.84;;;18.51;100.00
3082;BME280;1551;51.046;7.010;2023-08-01T01:50:11;99150.81;;;18.62;100.00
3082;BME280;1551;51.046;7.010;2023-08-01T01:52:59;99164.06;;;18.57;100.00
3082;BME280;1551;51.046;7.010;2023-08-01T01:55:49;99161.19;;;18.49;100.00
3082;BME280;1551;51.046;7.010;2023-08-01T01:58:38;99155.63;;;18.41;100.00
3082;BME280;1551;51.046;7.010;2023-08-01T02:01:27;99161.91;;;18.51;100.00
3082;BME280;1551;51.046;7.010;2023-08-01T02:04:16;99168.44;;;18.57;100.00
3082;BME280;1551;51.046;7.010;2023-08-01T02:07:05;99164.63;;;18.49;100.00
3082;BME280;1551;51.046;7.010;2023-08-01T02:09:54;99175.16;;;18.46;100.00
3082;BME280;1551;51.046;7.010;2023-08-01T02:12:44;99169.78;;;18.49;100.00
3082;BME280;1551;51.046;7.010;2023-08-01T02:15:33;99160.22;;;18.50;100.00
3082;BME280;1551;51.046;7.010;2023-08-01T02:18:22;99158.47;;;18.50;100.00
3082;BME280;1551;51.046;7.010;2023-08-01T02:21:11;99171.81;;;18.44;100.00
3082;BME280;1551;51.046;7.010;2023-08-01T02:24:00;99170.09;;;18.58;100.00
3082;BME280;1551;51.046;7.010;2023-08-01T02:26:50;99169.38;;;18.56;100.00
3082;BME280;1551;51.046;7.010;2023-08-01T02:29:39;99169.19;;;18.59;100.00
3082;BME280;1551;51.046;7.010;2023-08-01T02:32:28;99173.53;;;18.58;100.00
3082;BME280;1551;51.046;7.010;2023-08-01T02:35:17;99181.19;;;18.47;100.00
3082;BME280;1551;51.046;7.010;2023-08-01T02:38:05;99173.78;;;18.41;100.00
3082;BME280;1551;51.046;7.010;2023-08-01T02:40:55;99167.56;;;18.43;100.00
3082;BME280;1551;51.046;7.010;2023-08-01T02:43:44;99167.94;;;18.51;100.00
3082;BME280;1551;51.046;7.010;2023-08-01T02:46:33;99181.72;;;18.65;100.00
3082;BME280;1551;51.046;7.010;2023-08-01T02:49:22;99178.81;;;18.57;100.00
3082;BME280;1551;51.046;7.010;2023-08-01T02:52:11;99178.38;;;18.50;100.00
3082;BME280;1551;51.046;7.010;2023-08-01T02:55:00;99177.44;;;18.51;100.00
3082;BME280;1551;51.046;7.010;2023-08-01T02:57:49;99179.22;;;18.50;100.00
3082;BME280;1551;51.046;7.010;2023-08-01T03:00:38;99184.19;;;18.53;100.00
3082;BME280;1551;51.046;7.010;2023-08-01T03:03:28;99180.22;;;18.35;100.00
3082;BME280;1551;51.046;7.010;2023-08-01T03:06:17;99181.22;;;18.33;100.00
3082;BME280;1551;51.046;7.010;2023-08-01T03:09:07;99171.88;;;18.18;100.00
3082;BME280;1551;51.046;7.010;2023-08-01T03:11:56;99186.38;;;18.20;100.00
3082;BME280;1551;51.046;7.010;2023-08-01T03:14:45;99191.13;;;18.14;100.00
3082;BME280;1551;51.046;7.010;2023-08-01T03:17:36;99197.28;;;18.25;100.00
3082;BME280;1551;51.046;7.010;2023-08-01T03:20:25;99200.59;;;18.27;100.00
3082;BME280;1551;51.046;7.010;2023-08-01T03:23:14;99194.03;;;18.22;100.00
3082;BME280;1551;51.046;7.010;2023-08-01T03:26:03;99198.41;;;18.21;100.00
3082;BME280;1551;51.046;7.010;2023-08-01T03:28:52;99205.88;;;18.26;100.00
3082;BME280;1551;51.046;7.010;2023-08-01T03:31:41;99210.09;;;18.27;100.00
3082;BME280;1551;51.046;7.010;2023-08-01T03:34:30;99212.81;;;18.25;100.00
3082;BME280;1551;51.046;7.010;2023-08-01T03:37:20;99212.09;;;18.23;100.00
3082;BME280;1551;51.046;7.010;2023-08-01T03:40:09;99221.25;;;18.15;100.00
3082;BME280;1551;51.046;7.010;2023-08-01T03:42:58;99221.78;;;18.07;100.00
3082;BME280;1551;51.046;7.010;2023-08-01T03:45:47;99235.53;;;18.08;100.00
3082;BME280;1551;51.046;7.010;2023-08-01T03:48:36;99223.16;;;17.99;100.00
3082;BME280;1551;51.046;7.010;2023-08-01T03:51:25;99237.91;;;17.98;100.00
3082;BME280;1551;51.046;7.010;2023-08-01T03:54:14;99250.28;;;17.93;100.00
3082;BME280;1551;51.046;7.010;2023-08-01T03:57:04;99241.53;;;17.81;100.00
3082;BME280;1551;51.046;7.010;2023-08-01T03:59:53;99244.50;;;17.75;100.00
3082;BME280;1551;51.046;7.010;2023-08-01T04:02:42;99254.94;;;17.74;100.00
3082;BME280;1551;51.046;7.010;2023-08-01T04:05:31;99247.00;;;17.77;100.00
3082;BME280;1551;51.046;7.010;2023-08-01T04:08:20;99245.19;;;17.92;100.00
3082;BME280;1551;51.046;7.010;2023-08-01T04:11:09;99260.69;;;17.79;100.00
3082;BME280;1551;51.046;7.010;2023-08-01T04:13:59;99255.47;;;17.93;100.00
3082;BME280;1551;51.046;7.010;2023-08-01T04:16:48;99259.53;;;17.97;100.00
3082;BME280;1551;51.046;7.010;2023-08-01T04:19:37;99254.63;;;17.93;100.00
3082;BME280;1551;51.046;7.010;2023-08-01T04:22:26;99259.34;;;18.00;100.00
3082;BME280;1551;51.046;7.010;2023-08-01T04:25:15;99258.97;;;17.92;100.00
3082;BME280;1551;51.046;7.010;2023-08-01T04:28:04;99257.97;;;17.80;99.74
3082;BME280;1551;51.046;7.010;2023-08-01T04:30:53;99262.00;;;17.72;99.64
3082;BME280;1551;51.046;7.010;2023-08-01T04:33:43;99264.84;;;17.67;99.27
3082;BME280;1551;51.046;7.010;2023-08-01T04:36:32;99258.00;;;17.66;98.95
3082;BME280;1551;51.046;7.010;2023-08-01T04:39:21;99272.81;;;17.64;98.83
3082;BME280;1551;51.046;7.010;2023-08-01T04:42:10;99264.66;;;17.56;98.65
3082;BME280;1551;51.046;7.010;2023-08-01T04:44:59;99267.59;;;17.50;98.75
3082;BME280;1551;51.046;7.010;2023-08-01T04:47:47;99264.94;;;17.52;99.10
3082;BME280;1551;51.046;7.010;2023-08-01T04:50:36;99269.03;;;17.56;98.89
3082;BME280;1551;51.046;7.010;2023-08-01T04:53:25;99265.69;;;17.54;98.87
3082;BME280;1551;51.046;7.010;2023-08-01T04:56:14;99265.22;;;17.61;99.14
3082;BME280;1551;51.046;7.010;2023-08-01T04:59:03;99279.72;;;17.64;98.63
3082;BME280;1551;51.046;7.010;2023-08-01T05:01:52;99287.78;;;17.59;98.79
3082;BME280;1551;51.046;7.010;2023-08-01T05:04:41;99265.59;;;17.41;99.01
3082;BME280;1551;51.046;7.010;2023-08-01T05:07:30;99269.94;;;17.55;99.08
3082;BME280;1551;51.046;7.010;2023-08-01T05:10:19;99272.44;;;17.56;98.85
3082;BME280;1551;51.046;7.010;2023-08-01T05:13:08;99272.44;;;17.56;99.20
3082;BME280;1551;51.046;7.010;2023-08-01T05:15:57;99285.34;;;17.70;99.10
3082;BME280;1551;51.046;7.010;2023-08-01T05:18:46;99280.66;;;17.77;99.16
3082;BME280;1551;51.046;7.010;2023-08-01T05:21:35;99283.59;;;17.85;98.73
3082;BME280;1551;51.046;7.010;2023-08-01T05:24:24;99287.13;;;17.84;98.63
3082;BME280;1551;51.046;7.010;2023-08-01T05:27:13;99286.75;;;17.76;97.88
3082;BME280;1551;51.046;7.010;2023-08-01T05:30:03;99283.59;;;17.71;98.33
3082;BME280;1551;51.046;7.010;2023-08-01T05:32:52;99296.06;;;17.78;98.59
3082;BME280;1551;51.046;7.010;2023-08-01T05:35:42;99301.81;;;17.83;98.14
3082;BME280;1551;51.046;7.010;2023-08-01T05:38:31;99301.69;;;17.85;97.47
3082;BME280;1551;51.046;7.010;2023-08-01T05:41:20;99306.25;;;17.81;97.44
3082;BME280;1551;51.046;7.010;2023-08-01T05:44:10;99319.63;;;17.88;97.29
3082;BME280;1551;51.046;7.010;2023-08-01T05:46:59;99330.91;;;17.87;97.11
3082;BME280;1551;51.046;7.010;2023-08-01T05:49:48;99326.00;;;17.82;96.50
3082;BME280;1551;51.046;7.010;2023-08-01T05:52:37;99328.41;;;17.85;96.27
3082;BME280;1551;51.046;7.010;2023-08-01T05:55:26;99324.44;;;17.80;95.98
3082;BME280;1551;51.046;7.010;2023-08-01T05:58:15;99327.97;;;17.79;95.88
3082;BME280;1551;51.046;7.010;2023-08-01T06:01:05;99341.09;;;17.76;95.59
3082;BME280;1551;51.046;7.010;2023-08-01T06:03:54;99335.25;;;17.72;95.34
3082;BME280;1551;51.046;7.010;2023-08-01T06:06:43;99335.09;;;17.61;95.70
3082;BME280;1551;51.046;7.010;2023-08-01T06:09:32;99327.25;;;17.63;95.70
3082;BME280;1551;51.046;7.010;2023-08-01T06:12:21;99331.19;;;17.68;95.68
3082;BME280;1551;51.046;7.010;2023-08-01T06:15:10;99333.59;;;17.71;95.72
3082;BME280;1551;51.046;7.010;2023-08-01T06:17:59;99336.53;;;17.79;95.44
3082;BME280;1551;51.046;7.010;2023-08-01T06:20:48;99332.66;;;17.86;95.75
3082;BME280;1551;51.046;7.010;2023-08-01T06:23:37;99337.06;;;17.99;95.38
3082;BME280;1551;51.046;7.010;2023-08-01T06:26:27;99339.31;;;18.05;94.63
3082;BME280;1551;51.046;7.010;2023-08-01T06:29:16;99339.13;;;17.94;94.46
3082;BME280;1551;51.046;7.010;2023-08-01T06:32:06;99343.28;;;17.96;94.31
3082;BME280;1551;51.046;7.010;2023-08-01T06:34:55;99330.88;;;18.01;94.22
3082;BME280;1551;51.046;7.010;2023-08-01T06:37:44;99339.31;;;18.05;93.87
3082;BME280;1551;51.046;7.010;2023-08-01T06:40:33;99339.75;;;18.11;94.21
3082;BME280;1551;51.046;7.010;2023-08-01T06:43:22;99348.47;;;18.37;93.69
3082;BME280;1551;51.046;7.010;2023-08-01T06:46:13;99343.53;;;18.61;92.87
3082;BME280;1551;51.046;7.010;2023-08-01T06:49:02;99342.56;;;18.62;92.27
3082;BME280;1551;51.046;7.010;2023-08-01T06:51:51;99341.47;;;18.66;91.50
3082;BME280;1551;51.046;7.010;2023-08-01T06:54:40;99336.78;;;18.58;91.52
3082;BME280;1551;51.046;7.010;2023-08-01T06:57:29;99336.88;;;18.57;91.56
3082;BME280;1551;51.046;7.010;2023-08-01T07:00:19;99346.94;;;18.61;90.93
3082;BME280;1551;51.046;7.010;2023-08-01T07:03:08;99347.56;;;18.65;90.79
3082;BME280;1551;51.046;7.010;2023-08-01T07:05:57;99348.84;;;18.72;89.75
3082;BME280;1551;51.046;7.010;2023-08-01T07:08:47;99352.69;;;18.79;89.78
3082;BME280;1551;51.046;7.010;2023-08-01T07:11:36;99352.03;;;18.63;89.40
3082;BME280;1551;51.046;7.010;2023-08-01T07:14:24;99350.47;;;18.60;89.37
3082;BME280;1551;51.046;7.010;2023-08-01T07:17:13;99352.81;;;18.77;88.90
3082;BME280;1551;51.046;7.010;2023-08-01T07:20:03;99348.25;;;18.81;88.42
3082;BME280;1551;51.046;7.010;2023-08-01T07:22:52;99351.19;;;18.89;87.51
3082;BME280;1551;51.046;7.010;2023-08-01T07:25:41;99355.19;;;18.80;87.23
3082;BME280;1551;51.046;7.010;2023-08-01T07:28:30;99361.38;;;19.04;87.62
3082;BME280;1551;51.046;7.010;2023-08-01T07:31:19;99356.94;;;19.19;86.13
3082;BME280;1551;51.046;7.010;2023-08-01T07:34:08;99358.28;;;19.25;85.59
3082;BME280;1551;51.046;7.010;2023-08-01T07:36:58;99360.06;;;19.24;84.83
3082;BME280;1551;51.046;7.010;2023-08-01T07:39:49;99357.75;;;19.07;84.24
3082;BME280;1551;51.046;7.010;2023-08-01T07:42:38;99363.13;;;19.43;84.60
3082;BME280;1551;51.046;7.010;2023-08-01T07:45:27;99366.41;;;19.70;82.50
3082;BME280;1551;51.046;7.010;2023-08-01T07:48:16;99368.50;;;19.65;81.64
3082;BME280;1551;51.046;7.010;2023-08-01T07:51:05;99373.28;;;19.71;80.87
3082;BME280;1551;51.046;7.010;2023-08-01T07:53:56;99374.00;;;19.73;81.26
3082;BME280;1551;51.046;7.010;2023-08-01T07:56:45;99374.41;;;19.80;80.36
3082;BME280;1551;51.046;7.010;2023-08-01T07:59:37;99376.44;;;20.00;80.18
3082;BME280;1551;51.046;7.010;2023-08-01T08:02:26;99391.56;;;19.82;79.54
3082;BME280;1551;51.046;7.010;2023-08-01T08:05:15;99379.38;;;19.58;79.62
3082;BME280;1551;51.046;7.010;2023-08-01T08:08:04;99361.44;;;19.55;79.44
3082;BME280;1551;51.046;7.010;2023-08-01T08:10:53;99386.16;;;19.85;78.73
3082;BME280;1551;51.046;7.010;2023-08-01T08:13:42;99383.44;;;19.87;78.01
3082;BME280;1551;51.046;7.010;2023-08-01T08:16:31;99374.50;;;19.91;77.98
3082;BME280;1551;51.046;7.010;2023-08-01T08:19:20;99389.25;;;19.90;77.51
3082;BME280;1551;51.046;7.010;2023-08-01T08:22:09;99393.00;;;19.86;78.01
3082;BME280;1551;51.046;7.010;2023-08-01T08:24:58;99398.97;;;20.12;77.43
3082;BME280;1551;51.046;7.010;2023-08-01T08:27:49;99389.44;;;20.25;76.38
3082;BME280;1551;51.046;7.010;2023-08-01T08:30:38;99386.09;;;20.83;74.96
3082;BME280;1551;51.046;7.010;2023-08-01T08:33:28;99388.31;;;21.35;73.96
3082;BME280;1551;51.046;7.010;2023-08-01T08:36:18;99380.09;;;21.17;71.79
3082;BME280;1551;51.046;7.010;2023-08-01T08:39:07;99391.25;;;20.72;73.65
3082;BME280;1551;51.046;7.010;2023-08-01T08:41:57;99385.03;;;20.38;74.03
3082;BME280;1551;51.046;7.010;2023-08-01T08:44:49;99394.84;;;20.22;74.92
3082;BME280;1551;51.046;7.010;2023-08-01T08:47:41;99390.47;;;19.98;75.82
3082;BME280;1551;51.046;7.010;2023-08-01T08:50:33;99388.19;;;20.06;76.23
3082;BME280;1551;51.046;7.010;2023-08-01T08:53:22;99393.47;;;20.29;75.91
3082;BME280;1551;51.046;7.010;2023-08-01T08:56:11;99385.69;;;21.00;75.10
3082;BME280;1551;51.046;7.010;2023-08-01T08:59:01;99391.91;;;21.67;72.24
3082;BME280;1551;51.046;7.010;2023-08-01T09:01:50;99394.63;;;21.66;70.73
3082;BME280;1551;51.046;7.010;2023-08-01T09:04:39;99392.25;;;21.63;70.37
3082;BME280;1551;51.046;7.010;2023-08-01T09:07:30;99397.53;;;21.39;70.08
3082;BME280;1551;51.046;7.010;2023-08-01T09:10:22;99395.44;;;21.09;70.00
3082;BME280;1551;51.046;7.010;2023-08-01T09:13:11;99422.63;;;20.82;71.12
3082;BME280;1551;51.046;7.010;2023-08-01T09:16:02;99415.13;;;20.53;71.35
3082;BME280;1551;51.046;7.010;2023-08-01T09:18:52;99416.66;;;21.03;70.92
3082;BME280;1551;51.046;7.010;2023-08-01T09:21:41;99411.47;;;22.06;69.17
3082;BME280;1551;51.046;7.010;2023-08-01T09:24:30;99415.38;;;22.34;66.84
3082;BME280;1551;51.046;7.010;2023-08-01T09:27:20;99418.69;;;22.36;65.24
3082;BME280;1551;51.046;7.010;2023-08-01T09:30:13;99421.78;;;21.85;65.40
3082;BME280;1551;51.046;7.010;2023-08-01T09:33:05;99418.00;;;21.33;66.91
3082;BME280;1551;51.046;7.010;2023-08-01T09:35:53;99429.75;;;20.91;69.39
3082;BME280;1551;51.046;7.010;2023-08-01T09:38:42;99429.13;;;20.64;71.91
3082;BME280;1551;51.046;7.010;2023-08-01T09:41:31;99421.78;;;20.45;73.62
3082;BME280;1551;51.046;7.010;2023-08-01T09:44:20;99420.56;;;20.38;75.76
3082;BME280;1551;51.046;7.010;2023-08-01T09:47:09;99429.44;;;20.59;76.30
3082;BME280;1551;51.046;7.010;2023-08-01T09:49:59;99424.31;;;20.70;76.47
3082;BME280;1551;51.046;7.010;2023-08-01T09:52:48;99421.28;;;21.00;76.31
3082;BME280;1551;51.046;7.010;2023-08-01T09:55:43;99415.88;;;21.38;75.01
3082;BME280;1551;51.046;7.010;2023-08-01T09:58:34;99423.94;;;21.92;73.01
3082;BME280;1551;51.046;7.010;2023-08-01T10:01:24;99408.63;;;22.31;71.17
3082;BME280;1551;51.046;7.010;2023-08-01T10:04:14;99421.13;;;23.02;68.47
3082;BME280;1551;51.046;7.010;2023-08-01T10:07:07;99416.38;;;23.39;67.50
3082;BME280;1551;51.046;7.010;2023-08-01T10:09:58;99414.38;;;24.03;64.93
3082;BME280;1551;51.046;7.010;2023-08-01T10:12:48;99412.09;;;23.89;63.35
3082;BME280;1551;51.046;7.010;2023-08-01T10:15:37;99424.50;;;24.17;61.68
3082;BME280;1551;51.046;7.010;2023-08-01T10:18:28;99418.31;;;23.88;61.10
3082;BME280;1551;51.046;7.010;2023-08-01T10:21:18;99415.50;;;23.80;60.27
3082;BME280;1551;51.046;7.010;2023-08-01T10:24:11;99420.53;;;23.92;59.80
3082;BME280;1551;51.046;7.010;2023-08-01T10:27:21;99423.78;;;23.85;59.37
3082;BME280;1551;51.046;7.010;2023-08-01T10:30:10;99414.13;;;23.76;59.20
3082;BME280;1551;51.046;7.010;2023-08-01T10:33:00;99423.16;;;23.31;59.08
3082;BME280;1551;51.046;7.010;2023-08-01T10:35:50;99421.34;;;23.42;58.99
3082;BME280;1551;51.046;7.010;2023-08-01T10:38:59;99416.38;;;23.28;59.20
3082;BME280;1551;51.046;7.010;2023-08-01T10:41:57;99420.09;;;22.62;60.84
3082;BME280;1551;51.046;7.010;2023-08-01T10:44:46;99425.81;;;22.12;63.54
3082;BME280;1551;51.046;7.010;2023-08-01T10:47:35;99417.97;;;22.23;64.90
3082;BME280;1551;51.046;7.010;2023-08-01T10:50:25;99419.97;;;22.64;63.78
3082;BME280;1551;51.046;7.010;2023-08-01T10:53:14;99437.59;;;22.82;62.94
3082;BME280;1551;51.046;7.010;2023-08-01T10:56:03;99424.34;;;22.63;61.48
3082;BME280;1551;51.046;7.010;2023-08-01T10:58:52;99416.09;;;22.90;60.84
3082;BME280;1551;51.046;7.010;2023-08-01T11:01:47;99420.41;;;23.11;59.56
3082;BME280;1551;51.046;7.010;2023-08-01T11:04:36;99417.75;;;23.64;60.03
3082;BME280;1551;51.046;7.010;2023-08-01T11:07:26;99428.16;;;25.23;56.18
3082;BME280;1551;51.046;7.010;2023-08-01T11:10:15;99426.34;;;24.06;55.99
3082;BME280;1551;51.046;7.010;2023-08-01T11:13:04;99431.63;;;23.23;57.25
3082;BME280;1551;51.046;7.010;2023-08-01T11:15:53;99431.53;;;22.93;58.33
3082;BME280;1551;51.046;7.010;2023-08-01T11:18:45;99425.34;;;22.94;58.49
3082;BME280;1551;51.046;7.010;2023-08-01T11:21:34;99427.59;;;23.19;57.78
3082;BME280;1551;51.046;7.010;2023-08-01T11:24:25;99422.38;;;23.19;56.04
3082;BME280;1551;51.046;7.010;2023-08-01T11:27:15;99423.41;;;23.89;54.82
3082;BME280;1551;51.046;7.010;2023-08-01T11:30:05;99432.16;;;25.17;51.94
3082;BME280;1551;51.046;7.010;2023-08-01T11:32:54;99435.81;;;25.72;49.49
3082;BME280;1551;51.046;7.010;2023-08-01T11:35:43;99414.50;;;25.00;51.09
3082;BME280;1551;51.046;7.010;2023-08-01T11:38:34;99437.69;;;25.53;49.08
3082;BME280;1551;51.046;7.010;2023-08-01T11:41:24;99451.53;;;25.82;48.98
3082;BME280;1551;51.046;7.010;2023-08-01T11:44:13;99439.09;;;26.57;47.22
3082;BME280;1551;51.046;7.010;2023-08-01T11:47:03;99431.88;;;25.95;48.28
3082;BME280;1551;51.046;7.010;2023-08-01T11:49:52;99438.09;;;26.86;46.67
3082;BME280;1551;51.046;7.010;2023-08-01T11:52:46;99440.03;;;27.37;45.04
3082;BME280;1551;51.046;7.010;2023-08-01T11:55:35;99452.06;;;27.21;44.91
3082;BME280;1551;51.046;7.010;2023-08-01T11:58:29;99442.22;;;26.07;46.40
3082;BME280;1551;51.046;7.010;2023-08-01T12:01:18;99437.66;;;25.62;47.87
3082;BME280;1551;51.046;7.010;2023-08-01T12:04:09;99460.25;;;25.35;48.91
3082;BME280;1551;51.046;7.010;2023-08-01T12:07:01;99461.63;;;25.67;49.25
3082;BME280;1551;51.046;7.010;2023-08-01T12:10:01;99466.47;;;25.43;50.26
3082;BME280;1551;51.046;7.010;2023-08-01T12:12:49;99472.06;;;25.96;49.20
3082;BME280;1551;51.046;7.010;2023-08-01T12:15:38;99461.41;;;24.54;51.46
3082;BME280;1551;51.046;7.010;2023-08-01T12:18:29;99460.09;;;23.37;54.97
3082;BME280;1551;51.046;7.010;2023-08-01T12:21:18;99468.59;;;23.07;57.21
3082;BME280;1551;51.046;7.010;2023-08-01T12:24:07;99476.56;;;23.38;57.42
3082;BME280;1551;51.046;7.010;2023-08-01T12:26:56;99455.63;;;23.17;58.46
3082;BME280;1551;51.046;7.010;2023-08-01T12:29:45;99469.97;;;22.80;60.17
3082;BME280;1551;51.046;7.010;2023-08-01T12:32:34;99480.59;;;22.99;60.49
3082;BME280;1551;51.046;7.010;2023-08-01T12:35:24;99467.78;;;23.07;60.38
3082;BME280;1551;51.046;7.010;2023-08-01T12:38:13;99469.66;;;23.05;59.68
3082;BME280;1551;51.046;7.010;2023-08-01T12:41:02;99485.53;;;22.48;61.25
3082;BME280;1551;51.046;7.010;2023-08-01T12:43:51;99497.13;;;22.00;62.43
3082;BME280;1551;51.046;7.010;2023-08-01T12:46:40;99495.22;;;21.56;65.37
3082;BME280;1551;51.046;7.010;2023-08-01T12:49:29;99503.06;;;21.08;68.58
3082;BME280;1551;51.046;7.010;2023-08-01T12:52:22;99500.72;;;20.93;71.21
3082;BME280;1551;51.046;7.010;2023-08-01T12:55:12;99503.78;;;21.10;73.19
3082;BME280;1551;51.046;7.010;2023-08-01T12:58:01;99512.53;;;21.09;74.67
3082;BME280;1551;51.046;7.010;2023-08-01T13:00:50;99520.47;;;20.95;75.20
3082;BME280;1551;51.046;7.010;2023-08-01T13:03:39;99524.00;;;20.94;76.19
3082;BME280;1551;51.046;7.010;2023-08-01T13:06:28;99523.34;;;21.16;75.99
3082;BME280;1551;51.046;7.010;2023-08-01T13:09:16;99520.88;;;21.49;75.49
3082;BME280;1551;51.046;7.010;2023-08-01T13:12:06;99523.66;;;21.94;75.95
3082;BME280;1551;51.046;7.010;2023-08-01T13:14:55;99529.97;;;22.24;74.49
3082;BME280;1551;51.046;7.010;2023-08-01T13:17:44;99523.09;;;22.23;74.88
3082;BME280;1551;51.046;7.010;2023-08-01T13:20:33;99526.75;;;22.10;75.11
3082;BME280;1551;51.046;7.010;2023-08-01T13:23:22;99525.59;;;21.79;75.73
3082;BME280;1551;51.046;7.010;2023-08-01T13:26:11;99518.56;;;21.34;75.99
3082;BME280;1551;51.046;7.010;2023-08-01T13:29:00;99518.97;;;21.16;76.44
3082;BME280;1551;51.046;7.010;2023-08-01T13:31:49;99514.69;;;21.15;76.43
3082;BME280;1551;51.046;7.010;2023-08-01T13:34:38;99520.34;;;21.68;76.41
3082;BME280;1551;51.046;7.010;2023-08-01T13:37:27;99532.06;;;21.73;76.39
3082;BME280;1551;51.046;7.010;2023-08-01T13:40:18;99530.25;;;21.52;76.32
3082;BME280;1551;51.046;7.010;2023-08-01T13:43:07;99518.34;;;21.37;76.21
3082;BME280;1551;51.046;7.010;2023-08-01T13:45:56;99524.38;;;21.37;76.49
3082;BME280;1551;51.046;7.010;2023-08-01T13:48:46;99518.66;;;21.90;75.89
3082;BME280;1551;51.046;7.010;2023-08-01T13:51:35;99521.25;;;23.12;72.60
3082;BME280;1551;51.046;7.010;2023-08-01T13:54:24;99526.53;;;23.33;71.88
3082;BME280;1551;51.046;7.010;2023-08-01T13:57:13;99522.09;;;23.76;70.47
3082;BME280;1551;51.046;7.010;2023-08-01T14:00:02;99509.47;;;23.81;69.11
3082;BME280;1551;51.046;7.010;2023-08-01T14:03:00;99524.72;;;23.45;68.84
3082;BME280;1551;51.046;7.010;2023-08-01T14:05:49;99527.25;;;22.92;70.40
3082;BME280;1551;51.046;7.010;2023-08-01T14:08:39;99518.03;;;22.66;71.77
3082;BME280;1551;51.046;7.010;2023-08-01T14:11:29;99520.88;;;22.41;72.36
3082;BME280;1551;51.046;7.010;2023-08-01T14:14:18;99519.78;;;22.43;72.78
3082;BME280;1551;51.046;7.010;2023-08-01T14:17:07;99516.59;;;22.40;72.35
3082;BME280;1551;51.046;7.010;2023-08-01T14:19:56;99512.78;;;22.33;72.39
3082;BME280;1551;51.046;7.010;2023-08-01T14:22:45;99513.38;;;22.25;73.80
3082;BME280;1551;51.046;7.010;2023-08-01T14:25:35;99504.13;;;22.10;73.58
3082;BME280;1551;51.046;7.010;2023-08-01T14:28:24;99519.72;;;21.99;74.60
3082;BME280;1551;51.046;7.010;2023-08-01T14:31:13;99517.94;;;21.88;74.54
3082;BME280;1551;51.046;7.010;2023-08-01T14:34:02;99519.97;;;21.96;75.09
3082;BME280;1551;51.046;7.010;2023-08-01T14:36:51;99515.59;;;21.97;74.75
3082;BME280;1551;51.046;7.010;2023-08-01T14:39:40;99510.41;;;22.08;74.61
3082;BME280;1551;51.046;7.010;2023-08-01T14:42:29;99507.00;;;22.29;75.05
3082;BME280;1551;51.046;7.010;2023-08-01T14:45:18;99521.81;;;22.73;74.32
3082;BME280;1551;51.046;7.010;2023-08-01T14:48:08;99526.88;;;22.97;73.20
3082;BME280;1551;51.046;7.010;2023-08-01T14:50:57;99518.00;;;22.55;72.84
3082;BME280;1551;51.046;7.010;2023-08-01T14:53:46;99520.72;;;22.20;73.93
3082;BME280;1551;51.046;7.010;2023-08-01T14:56:35;99530.84;;;21.90;74.58
3082;BME280;1551;51.046;7.010;2023-08-01T14:59:24;99525.59;;;21.79;74.48
3082;BME280;1551;51.046;7.010;2023-08-01T15:02:14;99521.03;;;21.94;74.76
3082;BME280;1551;51.046;7.010;2023-08-01T15:05:04;99520.41;;;22.69;74.15
3082;BME280;1551;51.046;7.010;2023-08-01T15:07:53;99531.41;;;22.95;72.10
3082;BME280;1551;51.046;7.010;2023-08-01T15:10:42;99526.53;;;22.90;71.00
3082;BME280;1551;51.046;7.010;2023-08-01T15:13:32;99532.13;;;22.86;71.70
3082;BME280;1551;51.046;7.010;2023-08-01T15:16:21;99532.94;;;22.86;70.38
3082;BME280;1551;51.046;7.010;2023-08-01T15:19:10;99530.22;;;22.66;69.56
3082;BME280;1551;51.046;7.010;2023-08-01T15:21:59;99532.47;;;22.81;69.16